Time;durP1;ratioP1;P1;durP2;ratioP2;P2;SDS_P1;SDS_P2;PMS_P1;PMS_P2;Temp;Humidity;BMP_temperature;BMP_pressure;BME280_temperature;BME280_humidity;BME280_pressure;Samples;Min_cycle;Max_cycle;Signal;HPM_P1;HPM_P2
2022/10/22 00:02:22;;;;;;;3.85;1.70;;;;;;;14.00;96.06;95995.31;5061758;28;20070;-77
2022/10/22 00:04:50;;;;;;;3.65;1.52;;;;;;;13.98;96.28;95990.19;5060996;28;20131;-77
2022/10/22 00:07:21;;;;;;;4.70;1.63;;;;;;;13.93;96.66;95995.09;5056917;28;20048;-78
2022/10/22 00:09:48;;;;;;;3.63;1.30;;;;;;;13.95;96.64;95993.63;5059844;28;20068;-78
2022/10/22 00:12:15;;;;;;;2.65;1.75;;;;;;;13.97;96.66;95999.53;5061048;28;20041;-78
2022/10/22 00:14:42;;;;;;;4.47;1.63;;;;;;;13.97;96.73;95996.00;5061349;28;20131;-77
2022/10/22 00:17:10;;;;;;;6.18;1.80;;;;;;;13.97;96.82;95987.81;5060103;28;20049;-78
2022/10/22 00:19:36;;;;;;;3.53;1.65;;;;;;;13.95;96.92;95987.38;5061109;28;20049;-78
2022/10/22 00:22:04;;;;;;;5.05;1.75;;;;;;;13.96;96.91;95988.94;5058881;28;20040;-78
2022/10/22 00:24:32;;;;;;;3.15;1.58;;;;;;;13.95;97.06;95984.63;5059303;28;20103;-77
2022/10/22 00:26:59;;;;;;;3.10;1.42;;;;;;;13.89;97.16;95989.56;5059707;28;20044;-78
2022/10/22 00:29:26;;;;;;;3.22;1.90;;;;;;;13.87;97.12;95991.03;5060383;28;20047;-77
2022/10/22 00:31:52;;;;;;;4.65;1.77;;;;;;;13.83;96.98;95997.22;5058996;28;20037;-78
2022/10/22 00:34:21;;;;;;;4.05;2.10;;;;;;;13.83;97.27;95991.75;5042179;28;20526;-78
2022/10/22 00:36:47;;;;;;;4.43;1.90;;;;;;;13.87;97.47;95994.56;5059249;28;20045;-78
2022/10/22 00:39:15;;;;;;;4.03;1.98;;;;;;;13.87;97.50;95991.03;5058905;28;20493;-79
2022/10/22 00:41:44;;;;;;;4.28;2.17;;;;;;;13.87;97.72;95975.41;5059088;28;20048;-78
2022/10/22 00:44:43;;;;;;;3.72;2.10;;;;;;;13.87;97.96;95977.34;5057414;28;20047;-79
2022/10/22 00:47:10;;;;;;;5.25;2.25;;;;;;;13.91;97.89;95986.47;5057781;28;20049;-79
2022/10/22 00:49:36;;;;;;;2.85;1.90;;;;;;;13.93;97.63;95992.38;5040136;28;20049;-76
2022/10/22 00:52:03;;;;;;;4.22;2.33;;;;;;;13.93;97.51;96000.59;5057548;28;20045;-76
2022/10/22 00:54:29;;;;;;;2.88;1.90;;;;;;;13.91;97.71;95995.47;5058466;28;20040;-78
2022/10/22 00:56:57;;;;;;;4.35;2.08;;;;;;;13.79;97.68;96001.78;5058485;28;20045;-76
2022/10/22 00:59:24;;;;;;;3.22;2.10;;;;;;;13.61;97.84;96016.88;5058004;28;20440;-76
2022/10/22 01:01:52;;;;;;;6.55;1.90;;;;;;;13.50;98.63;96032.16;5058008;28;20538;-77
2022/10/22 01:04:19;;;;;;;5.15;2.25;;;;;;;13.51;98.75;96040.03;5057793;28;20511;-77
2022/10/22 01:06:46;;;;;;;2.65;1.70;;;;;;;13.52;99.24;96049.84;5058426;28;20056;-75
2022/10/22 01:09:22;;;;;;;5.72;1.83;;;;;;;13.54;99.23;96060.44;5057620;28;20090;-78
2022/10/22 01:11:59;;;;;;;3.63;1.88;;;;;;;13.57;99.04;96063.28;5053633;28;20510;-77
2022/10/22 01:14:34;;;;;;;7.40;2.30;;;;;;;13.48;99.93;96062.59;5056458;28;20513;-77
2022/10/22 01:17:06;;;;;;;3.35;1.80;;;;;;;13.45;100.00;96057.81;5056993;28;20045;-77
2022/10/22 01:19:56;;;;;;;4.53;2.08;;;;;;;13.28;100.00;96042.44;5058008;28;20394;-78
2022/10/22 01:22:30;;;;;;;4.90;2.10;;;;;;;13.06;100.00;96040.94;5057438;28;20045;-78
2022/10/22 01:25:02;;;;;;;3.20;1.90;;;;;;;12.99;100.00;96037.16;5039361;28;20388;-78
2022/10/22 01:27:49;;;;;;;5.82;1.88;;;;;;;13.00;100.00;96030.59;5056701;28;20045;-78
2022/10/22 01:30:18;;;;;;;5.47;2.08;;;;;;;12.87;100.00;96024.31;5056899;28;20047;-78
2022/10/22 01:32:49;;;;;;;2.67;1.85;;;;;;;12.77;100.00;96017.34;5055785;28;20048;-78
2022/10/22 01:35:19;;;;;;;4.78;2.00;;;;;;;12.72;100.00;96020.28;5055938;28;20411;-79
2022/10/22 01:37:48;;;;;;;5.05;2.08;;;;;;;12.66;100.00;96024.38;5056444;28;20509;-80
2022/10/22 01:40:17;;;;;;;3.88;2.05;;;;;;;12.69;100.00;96028.41;5055575;28;20041;-79
2022/10/22 01:42:55;;;;;;;3.30;2.17;;;;;;;12.65;100.00;96025.53;5055725;28;20049;-79
2022/10/22 01:45:23;;;;;;;5.03;2.30;;;;;;;12.66;100.00;96018.94;5037673;28;20060;-79
2022/10/22 01:48:05;;;;;;;5.15;2.20;;;;;;;12.75;100.00;96014.16;5038283;28;20503;-79
2022/10/22 01:50:43;;;;;;;7.68;2.25;;;;;;;12.73;100.00;96027.34;5057458;28;20045;-79
2022/10/22 01:53:21;;;;;;;5.18;2.58;;;;;;;12.74;100.00;96026.25;5056967;28;20045;-78
2022/10/22 01:56:04;;;;;;;5.10;2.30;;;;;;;12.77;100.00;96022.81;5057156;28;20138;-79
2022/10/22 01:58:42;;;;;;;9.15;2.03;;;;;;;12.76;100.00;96032.16;5056805;28;20087;-79
2022/10/22 02:01:18;;;;;;;3.97;2.15;;;;;;;12.82;100.00;96035.44;5056236;28;20049;-77
2022/10/22 02:03:50;;;;;;;5.20;2.30;;;;;;;12.86;100.00;96036.38;5057164;28;20084;-79
2022/10/22 02:06:20;;;;;;;3.70;2.00;;;;;;;12.83;100.00;96041.72;5039034;28;20045;-79
2022/10/22 02:08:48;;;;;;;3.47;2.05;;;;;;;12.88;100.00;96052.41;5064434;28;20049;-79
2022/10/22 02:11:15;;;;;;;7.18;2.42;;;;;;;12.90;100.00;96050.16;5062778;28;20056;-78
2022/10/22 02:13:46;;;;;;;4.60;2.65;;;;;;;12.89;100.00;96051.28;5061032;28;20041;-77
2022/10/22 02:16:18;;;;;;;5.35;2.53;;;;;;;12.90;100.00;96050.97;5059637;28;20045;-78
2022/10/22 02:18:47;;;;;;;5.20;2.30;;;;;;;12.90;100.00;96047.44;5060131;28;20055;-78
2022/10/22 02:21:15;;;;;;;5.78;2.63;;;;;;;12.88;100.00;96044.22;5039765;28;20053;-78
2022/10/22 02:23:42;;;;;;;9.32;2.45;;;;;;;12.94;100.00;96037.38;5059354;28;20053;-78
2022/10/22 02:26:14;;;;;;;4.40;2.20;;;;;;;13.00;100.00;96038.78;5040129;28;20103;-78
2022/10/22 02:28:48;;;;;;;7.07;2.33;;;;;;;12.91;100.00;96060.75;5058402;28;20055;-78
2022/10/22 02:31:22;;;;;;;5.65;2.22;;;;;;;12.89;100.00;96062.22;5059937;28;20295;-77
2022/10/22 02:33:53;;;;;;;4.75;2.05;;;;;;;12.78;100.00;96061.84;5046153;28;20063;-78
2022/10/22 02:36:21;;;;;;;6.28;2.47;;;;;;;12.84;100.00;96062.44;5061219;28;20050;-78
2022/10/22 02:38:50;;;;;;;5.65;2.40;;;;;;;12.84;100.00;96076.09;5061268;28;20048;-79
2022/10/22 02:41:18;;;;;;;6.70;2.38;;;;;;;12.78;100.00;96084.50;5059227;28;20037;-78
2022/10/22 02:43:50;;;;;;;6.22;2.55;;;;;;;12.75;100.00;96090.66;5041456;28;20055;-78
2022/10/22 02:46:18;;;;;;;5.05;2.22;;;;;;;12.80;100.00;96098.66;5041171;28;20047;-79
2022/10/22 02:48:44;;;;;;;6.78;2.50;;;;;;;12.73;100.00;96092.91;5041346;28;20045;-78
2022/10/22 02:51:11;;;;;;;6.63;2.10;;;;;;;12.75;100.00;96098.88;5040729;28;20053;-79
2022/10/22 02:53:37;;;;;;;6.07;2.53;;;;;;;12.66;100.00;96103.63;5058360;28;20526;-78
2022/10/22 02:56:04;;;;;;;6.30;2.83;;;;;;;12.68;100.00;96112.25;5060194;28;20045;-77
2022/10/22 02:58:31;;;;;;;10.05;2.88;;;;;;;12.68;100.00;96111.47;5059769;28;20048;-77
2022/10/22 03:00:57;;;;;;;6.55;2.83;;;;;;;12.66;100.00;96109.06;5060072;28;20124;-78
2022/10/22 03:03:25;;;;;;;8.02;2.58;;;;;;;12.78;100.00;96117.28;5059832;28;20045;-78
2022/10/22 03:05:52;;;;;;;3.97;2.33;;;;;;;12.63;100.00;96115.19;5060519;28;20055;-78
2022/10/22 03:08:18;;;;;;;7.78;2.97;;;;;;;12.64;100.00;96108.63;5057910;28;20609;-77
2022/10/22 03:10:45;;;;;;;4.60;2.55;;;;;;;12.64;100.00;96116.81;5058589;28;20070;-79
2022/10/22 03:13:12;;;;;;;6.30;2.38;;;;;;;12.61;100.00;96117.47;5056740;28;20108;-79
2022/10/22 03:15:38;;;;;;;7.25;2.35;;;;;;;12.62;100.00;96113.59;5060599;28;20049;-79
2022/10/22 03:18:05;;;;;;;6.22;2.55;;;;;;;12.62;100.00;96110.88;5058965;28;20041;-79
2022/10/22 03:20:33;;;;;;;4.78;2.20;;;;;;;12.61;100.00;96106.56;5059721;28;20041;-78
2022/10/22 03:23:01;;;;;;;5.28;2.00;;;;;;;12.65;100.00;96104.75;5060786;28;20075;-79
2022/10/22 03:25:29;;;;;;;6.03;2.10;;;;;;;12.66;100.00;96100.09;5061340;28;20048;-79
2022/10/22 03:28:02;;;;;;;6.57;2.10;;;;;;;12.64;100.00;96097.69;5059572;28;20097;-78
2022/10/22 03:30:29;;;;;;;3.90;2.20;;;;;;;12.63;100.00;96098.81;5058163;28;20399;-78
2022/10/22 03:32:56;;;;;;;4.07;2.33;;;;;;;12.65;100.00;96095.75;5057988;28;20045;-78
2022/10/22 03:35:22;;;;;;;4.38;2.20;;;;;;;12.57;100.00;96097.44;5057060;28;20500;-77
2022/10/22 03:37:51;;;;;;;4.60;2.10;;;;;;;12.61;100.00;96100.28;5038447;28;20059;-77
2022/10/22 03:40:18;;;;;;;7.07;2.10;;;;;;;12.61;100.00;96095.63;5056898;28;20106;-79
2022/10/22 03:42:45;;;;;;;5.80;2.40;;;;;;;12.61;100.00;96101.09;5055436;28;20045;-78
2022/10/22 03:45:12;;;;;;;3.80;2.40;;;;;;;12.56;100.00;96104.03;5056832;28;20127;-79
2022/10/22 03:47:39;;;;;;;5.15;2.03;;;;;;;12.59;100.00;96103.38;5060412;28;20045;-78
2022/10/22 03:50:07;;;;;;;5.22;2.50;;;;;;;12.62;100.00;96108.16;5060587;28;20744;-79
2022/10/22 03:52:36;;;;;;;6.55;2.22;;;;;;;12.62;100.00;96102.69;5061294;28;20045;-79
2022/10/22 03:55:05;;;;;;;5.15;2.00;;;;;;;12.60;100.00;96104.16;5061701;28;20060;-78
2022/10/22 03:57:32;;;;;;;3.33;1.92;;;;;;;12.65;100.00;96112.94;5061407;28;20108;-79
2022/10/22 03:59:58;;;;;;;5.57;1.98;;;;;;;12.66;100.00;96113.75;5061264;28;20049;-78
2022/10/22 04:02:25;;;;;;;4.90;2.10;;;;;;;12.61;100.00;96117.47;5043468;28;20102;-79
2022/10/22 04:04:52;;;;;;;5.72;2.00;;;;;;;12.63;100.00;96117.94;5061112;28;20044;-79
2022/10/22 04:07:18;;;;;;;3.38;1.88;;;;;;;12.61;100.00;96139.34;5062365;28;20055;-78
2022/10/22 04:09:45;;;;;;;3.15;1.83;;;;;;;12.57;100.00;96137.59;5063119;28;20044;-79
2022/10/22 04:12:13;;;;;;;5.70;2.08;;;;;;;12.50;100.00;96143.63;5062191;28;20037;-78
2022/10/22 04:14:40;;;;;;;5.13;1.95;;;;;;;12.49;100.00;96147.50;5062839;28;20053;-78
2022/10/22 04:17:06;;;;;;;6.63;2.22;;;;;;;12.47;100.00;96133.34;5045506;28;20045;-78
2022/10/22 04:19:33;;;;;;;4.00;2.33;;;;;;;12.47;100.00;96138.81;5062529;28;20049;-78
2022/10/22 04:22:00;;;;;;;2.53;1.90;;;;;;;12.41;100.00;96138.22;5064070;28;20052;-78
2022/10/22 04:24:26;;;;;;;4.72;2.10;;;;;;;12.39;100.00;96139.72;5063707;28;20045;-78
2022/10/22 04:26:54;;;;;;;3.95;2.10;;;;;;;12.39;100.00;96143.22;5063977;28;20056;-79
2022/10/22 04:29:22;;;;;;;7.13;2.30;;;;;;;12.32;100.00;96148.44;5062474;28;20552;-78
2022/10/22 04:31:49;;;;;;;5.03;2.20;;;;;;;12.30;100.00;96137.03;5064226;28;20048;-78
2022/10/22 04:34:15;;;;;;;4.47;2.47;;;;;;;12.32;100.00;96142.97;5065342;28;20041;-79
2022/10/22 04:36:42;;;;;;;4.95;2.20;;;;;;;12.20;100.00;96140.16;5049227;28;20040;-79
2022/10/22 04:39:09;;;;;;;2.45;1.75;;;;;;;12.15;100.00;96141.16;5066510;28;20055;-78
2022/10/22 04:41:37;;;;;;;6.82;2.15;;;;;;;12.03;100.00;96141.09;5065989;28;20053;-79
2022/10/22 04:44:04;;;;;;;3.42;1.70;;;;;;;12.01;100.00;96154.31;5066107;28;20044;-79
2022/10/22 04:46:34;;;;;;;7.57;1.92;;;;;;;12.01;100.00;96152.38;5050755;28;20037;-79
2022/10/22 04:49:02;;;;;;;2.95;1.90;;;;;;;11.98;100.00;96150.28;5064981;28;20045;-78
2022/10/22 04:51:29;;;;;;;2.53;1.63;;;;;;;12.05;100.00;96151.69;5063648;28;20104;-79
2022/10/22 04:53:56;;;;;;;5.60;2.00;;;;;;;12.05;100.00;96148.97;5062799;28;20109;-78
2022/10/22 04:56:25;;;;;;;7.25;2.70;;;;;;;11.95;100.00;96152.88;5062451;28;20044;-77
2022/10/22 04:58:54;;;;;;;4.20;1.60;;;;;;;11.84;100.00;96147.00;5066027;28;20055;-78
2022/10/22 05:01:22;;;;;;;4.13;1.50;;;;;;;11.89;100.00;96149.53;5065170;28;20049;-78
2022/10/22 05:03:53;;;;;;;3.42;1.40;;;;;;;11.88;100.00;96160.78;5066920;28;20406;-79
2022/10/22 05:06:20;;;;;;;2.95;1.48;;;;;;;11.81;100.00;96157.78;5067037;28;20059;-77
2022/10/22 05:08:47;;;;;;;4.40;1.25;;;;;;;11.83;100.00;96153.59;5065143;28;20055;-79
2022/10/22 05:11:16;;;;;;;3.75;1.50;;;;;;;11.83;100.00;96155.53;5063869;28;20048;-78
2022/10/22 05:13:43;;;;;;;3.10;1.30;;;;;;;11.88;100.00;96160.78;5063820;28;20048;-78
2022/10/22 05:16:10;;;;;;;4.03;1.50;;;;;;;11.91;100.00;96165.59;5062479;28;20049;-78
2022/10/22 05:18:37;;;;;;;5.05;1.35;;;;;;;11.80;100.00;96164.31;5061285;28;20053;-77
2022/10/22 05:21:08;;;;;;;2.75;1.30;;;;;;;11.82;100.00;96162.13;5059355;28;20048;-78
2022/10/22 05:23:35;;;;;;;2.97;1.25;;;;;;;11.99;100.00;96179.16;5055936;28;20711;-79
2022/10/22 05:26:02;;;;;;;2.90;1.45;;;;;;;12.07;100.00;96174.00;5060901;28;20045;-77
2022/10/22 05:28:29;;;;;;;4.05;1.77;;;;;;;12.06;100.00;96173.22;5043636;28;20052;-78
2022/10/22 05:30:58;;;;;;;1.65;1.27;;;;;;;12.18;100.00;96186.91;5061230;28;20053;-79
2022/10/22 05:33:25;;;;;;;2.55;1.48;;;;;;;12.16;100.00;96178.28;5061494;28;20045;-79
2022/10/22 05:35:51;;;;;;;3.65;1.52;;;;;;;12.08;100.00;96168.19;5062836;28;20051;-79
2022/10/22 05:38:19;;;;;;;5.43;1.35;;;;;;;12.15;100.00;96170.41;5060839;28;20052;-78
2022/10/22 05:40:46;;;;;;;3.83;1.17;;;;;;;12.27;100.00;96179.47;5063147;28;20048;-78
2022/10/22 05:43:13;;;;;;;3.58;1.30;;;;;;;12.33;100.00;96192.94;5061144;28;20051;-78
2022/10/22 05:45:40;;;;;;;5.40;1.35;;;;;;;12.22;100.00;96187.88;5061724;28;20049;-79
2022/10/22 05:48:08;;;;;;;2.33;1.40;;;;;;;12.32;100.00;96192.13;5060110;28;20492;-77
2022/10/22 05:50:35;;;;;;;1.83;1.20;;;;;;;12.40;100.00;96204.09;5042308;28;20037;-78
2022/10/22 05:53:02;;;;;;;4.68;1.50;;;;;;;12.44;100.00;96199.59;5059349;28;20049;-79
2022/10/22 05:55:35;;;;;;;1.75;1.20;;;;;;;12.50;100.00;96209.16;5058107;28;20045;-78
2022/10/22 05:58:02;;;;;;;1.88;1.15;;;;;;;12.52;100.00;96201.44;5059681;28;20068;-78
2022/10/22 06:00:29;;;;;;;1.77;1.00;;;;;;;12.54;100.00;96205.44;5059279;28;20040;-78
2022/10/22 06:02:55;;;;;;;2.17;1.13;;;;;;;12.55;100.00;96203.50;5058068;28;20041;-79
2022/10/22 06:05:22;;;;;;;2.15;1.10;;;;;;;12.57;100.00;96203.97;5058655;28;20056;-78
2022/10/22 06:07:48;;;;;;;3.35;1.20;;;;;;;12.58;100.00;96205.56;5062264;28;20045;-78
2022/10/22 06:10:18;;;;;;;3.15;1.40;;;;;;;12.52;100.00;96220.53;5063434;28;20128;-77
2022/10/22 06:12:47;;;;;;;1.90;1.15;;;;;;;12.58;100.00;96205.56;5045985;28;20045;-79
2022/10/22 06:15:16;;;;;;;2.63;1.90;;;;;;;12.60;100.00;96208.75;5064049;28;20384;-78
2022/10/22 06:17:44;;;;;;;4.05;2.95;;;;;;;12.61;100.00;96207.63;5047561;28;20045;-79
2022/10/22 06:20:12;;;;;;;4.22;2.70;;;;;;;12.65;100.00;96205.81;5048267;28;20064;-78
2022/10/22 06:22:38;;;;;;;2.38;1.83;;;;;;;12.66;100.00;96212.88;5065745;28;20041;-79
2022/10/22 06:25:07;;;;;;;2.60;1.75;;;;;;;12.63;100.00;96219.00;5064293;28;20053;-79
2022/10/22 06:27:34;;;;;;;2.92;2.00;;;;;;;12.63;100.00;96224.47;5057435;28;20135;-77
2022/10/22 06:30:02;;;;;;;5.97;2.97;;;;;;;12.58;100.00;96219.25;5060785;28;20064;-77
2022/10/22 06:32:28;;;;;;;4.25;2.20;;;;;;;12.56;100.00;96220.69;5060518;28;20120;-79
2022/10/22 06:34:55;;;;;;;3.80;1.50;;;;;;;12.55;100.00;96222.63;5059122;28;20412;-78
2022/10/22 06:37:21;;;;;;;2.10;1.33;;;;;;;12.56;100.00;96224.22;5061794;28;20053;-78
2022/10/22 06:39:48;;;;;;;4.55;1.10;;;;;;;12.48;100.00;96234.09;5059513;28;20048;-78
2022/10/22 06:42:14;;;;;;;2.10;0.90;;;;;;;12.42;100.00;96235.41;5060116;28;20055;-78
2022/10/22 06:44:41;;;;;;;1.48;1.00;;;;;;;12.46;100.00;96241.78;5059769;28;20488;-78
2022/10/22 06:47:09;;;;;;;1.92;1.00;;;;;;;12.56;100.00;96243.34;5059839;28;20048;-78
2022/10/22 06:49:36;;;;;;;4.85;1.95;;;;;;;12.57;100.00;96242.19;5059933;28;20056;-77
2022/10/22 06:52:02;;;;;;;3.33;1.42;;;;;;;12.56;100.00;96248.78;5059889;28;20060;-77
2022/10/22 06:54:29;;;;;;;4.32;1.75;;;;;;;12.59;100.00;96250.88;5059486;28;20068;-79
2022/10/22 06:56:55;;;;;;;4.10;1.50;;;;;;;12.61;100.00;96253.25;5057957;28;20407;-73
2022/10/22 06:59:22;;;;;;;4.18;1.42;;;;;;;12.66;100.00;96250.34;5053266;28;20059;-73
2022/10/22 07:01:48;;;;;;;2.70;1.55;;;;;;;12.67;100.00;96254.66;5057276;28;20064;-77
2022/10/22 07:04:17;;;;;;;2.83;1.40;;;;;;;12.68;100.00;96259.78;5058056;28;20044;-79
2022/10/22 07:06:43;;;;;;;3.63;1.40;;;;;;;12.72;100.00;96266.19;5059181;28;20393;-78
2022/10/22 07:09:10;;;;;;;3.40;1.30;;;;;;;12.77;100.00;96276.13;5056881;28;20492;-78
2022/10/22 07:11:40;;;;;;;4.03;2.03;;;;;;;12.85;100.00;96285.41;5057165;28;20041;-78
2022/10/22 07:14:07;;;;;;;3.22;1.70;;;;;;;12.84;100.00;96295.50;5057926;28;20053;-77
2022/10/22 07:16:33;;;;;;;3.72;1.80;;;;;;;12.76;100.00;96299.91;5040598;28;20488;-79
2022/10/22 07:19:00;;;;;;;2.80;1.33;;;;;;;12.81;100.00;96307.13;5058794;28;20083;-78
2022/10/22 07:21:29;;;;;;;2.55;1.30;;;;;;;12.84;100.00;96316.56;5058036;28;20068;-78
2022/10/22 07:23:56;;;;;;;3.45;2.00;;;;;;;12.89;100.00;96330.03;5058317;28;20045;-77
2022/10/22 07:26:24;;;;;;;2.97;1.88;;;;;;;12.83;100.00;96326.69;5039998;28;20474;-79
2022/10/22 07:28:51;;;;;;;5.38;1.80;;;;;;;12.88;100.00;96337.44;5057656;28;20048;-78
2022/10/22 07:31:19;;;;;;;2.00;1.45;;;;;;;12.93;100.00;96339.16;5057325;28;20049;-79
2022/10/22 07:33:45;;;;;;;1.65;1.20;;;;;;;12.94;100.00;96343.50;5056352;28;20056;-79
2022/10/22 07:36:16;;;;;;;2.05;1.27;;;;;;;12.96;100.00;96336.56;5057239;28;20045;-79
2022/10/22 07:38:44;;;;;;;3.17;2.10;;;;;;;13.00;100.00;96339.44;5057468;28;20106;-79
2022/10/22 07:41:12;;;;;;;3.38;2.10;;;;;;;13.02;100.00;96350.84;5057508;28;20045;-77
2022/10/22 07:43:38;;;;;;;3.05;1.55;;;;;;;13.03;100.00;96357.91;5057128;28;20079;-78
2022/10/22 07:46:07;;;;;;;2.30;1.27;;;;;;;13.03;100.00;96357.91;5056974;28;20037;-79
2022/10/22 07:48:33;;;;;;;1.77;1.00;;;;;;;13.05;100.00;96361.13;5057019;28;20466;-78
2022/10/22 07:51:00;;;;;;;1.67;1.02;;;;;;;13.10;100.00;96358.16;5055549;28;20067;-76
2022/10/22 07:53:26;;;;;;;4.03;1.17;;;;;;;13.17;100.00;96360.38;5054469;28;20052;-78
2022/10/22 07:55:55;;;;;;;3.03;1.10;;;;;;;13.18;100.00;96354.56;5054933;28;20246;-78
2022/10/22 07:58:22;;;;;;;5.10;1.40;;;;;;;13.23;100.00;96365.34;5054605;28;20053;-75
2022/10/22 08:00:50;;;;;;;2.53;1.60;;;;;;;13.24;100.00;96366.13;5054364;28;20052;-78
2022/10/22 08:03:18;;;;;;;3.30;1.60;;;;;;;13.26;100.00;96372.88;5053830;28;20041;-77
2022/10/22 08:05:44;;;;;;;4.60;2.30;;;;;;;13.24;100.00;96375.13;5038734;28;20416;-80
2022/10/22 08:08:12;;;;;;;4.43;1.65;;;;;;;13.29;100.00;96377.66;5058525;28;20048;-78
2022/10/22 08:10:39;;;;;;;2.38;1.60;;;;;;;13.34;100.00;96373.13;5053089;28;20506;-78
2022/10/22 08:13:07;;;;;;;2.95;1.45;;;;;;;13.39;100.00;96372.94;5043222;28;20041;-79
2022/10/22 08:15:34;;;;;;;2.78;1.60;;;;;;;13.39;100.00;96372.94;5054412;28;20053;-80
2022/10/22 08:18:01;;;;;;;2.72;1.30;;;;;;;13.41;100.00;96390.59;5054794;28;20507;-78
2022/10/22 08:20:27;;;;;;;2.78;1.10;;;;;;;13.26;100.00;96405.69;5055348;28;20476;-77
2022/10/22 08:22:54;;;;;;;3.72;0.70;;;;;;;13.01;99.70;96398.44;5054383;28;20049;-77
2022/10/22 08:25:21;;;;;;;4.22;0.90;;;;;;;13.03;99.83;96410.63;5055378;28;20453;-77
2022/10/22 08:27:47;;;;;;;1.63;0.77;;;;;;;13.15;99.51;96403.63;5055831;28;20045;-79
2022/10/22 08:30:15;;;;;;;2.83;1.17;;;;;;;13.11;100.00;96398.06;5055149;28;20056;-79
2022/10/22 08:32:42;;;;;;;1.75;0.75;;;;;;;13.14;100.00;96397.38;5056024;28;20132;-79
2022/10/22 08:35:09;;;;;;;1.70;0.90;;;;;;;13.20;100.00;96401.50;5054916;28;20045;-80
2022/10/22 08:37:36;;;;;;;1.75;0.90;;;;;;;13.24;100.00;96412.63;5055754;28;20072;-79
2022/10/22 08:40:03;;;;;;;1.80;0.90;;;;;;;13.29;100.00;96415.94;5054935;28;20499;-80
2022/10/22 08:42:50;;;;;;;1.55;0.80;;;;;;;13.27;99.60;96412.75;5056126;28;20041;-82
2022/10/22 08:45:24;;;;;;;9.13;2.40;;;;;;;13.21;99.45;96419.56;5028538;28;20042;-78
2022/10/22 08:48:07;;;;;;;2.97;1.52;;;;;;;13.25;99.80;96417.75;5053276;28;20088;-78
2022/10/22 08:50:36;;;;;;;2.63;1.60;;;;;;;13.31;99.63;96413.69;5049782;28;20048;-78
2022/10/22 08:53:06;;;;;;;3.95;2.40;;;;;;;13.33;99.86;96416.09;5041337;28;20041;-77
2022/10/22 08:55:35;;;;;;;3.67;1.10;;;;;;;13.23;99.84;96411.03;5055701;28;20659;-77
2022/10/22 08:58:14;;;;;;;2.88;1.50;;;;;;;13.35;99.95;96418.47;5055712;28;20049;-77
2022/10/22 09:00:46;;;;;;;2.97;1.13;;;;;;;13.40;99.12;96423.75;5056469;28;20061;-78
2022/10/22 09:03:31;;;;;;;2.38;1.30;;;;;;;13.20;98.20;96420.66;5054023;28;20069;-76
2022/10/22 09:06:03;;;;;;;2.63;1.13;;;;;;;12.99;98.17;96428.81;5058548;28;20045;-77
2022/10/22 09:08:30;;;;;;;3.03;1.37;;;;;;;13.01;98.49;96423.06;5059750;28;20055;-77
2022/10/22 09:11:03;;;;;;;2.90;0.98;;;;;;;13.01;98.90;96433.97;5059600;28;20049;-78
2022/10/22 09:13:30;;;;;;;1.25;0.90;;;;;;;12.96;99.90;96434.19;5056911;28;20047;-79
2022/10/22 09:16:01;;;;;;;4.57;1.10;;;;;;;12.85;99.91;96441.16;5057426;28;20048;-78
2022/10/22 09:18:41;;;;;;;3.72;1.23;;;;;;;12.93;99.80;96440.28;5061713;28;20043;-79
2022/10/22 09:21:20;;;;;;;2.55;1.20;;;;;;;12.91;99.73;96448.03;5059328;28;20049;-78
2022/10/22 09:23:58;;;;;;;3.25;1.00;;;;;;;12.87;100.00;96442.41;5058760;28;20041;-79
2022/10/22 09:26:26;;;;;;;3.65;1.30;;;;;;;12.94;100.00;96453.63;5058970;28;20065;-79
2022/10/22 09:28:53;;;;;;;3.28;0.90;;;;;;;12.97;99.78;96446.72;5059701;28;20123;-80
2022/10/22 09:31:21;;;;;;;3.00;1.10;;;;;;;12.85;100.00;96449.34;5057874;28;20057;-79
2022/10/22 09:33:51;;;;;;;1.92;0.90;;;;;;;12.94;100.00;96452.81;5058676;28;20136;-79
2022/10/22 09:36:21;;;;;;;1.85;0.82;;;;;;;13.12;100.00;96464.47;5056907;28;20524;-80
2022/10/22 09:38:50;;;;;;;1.67;0.82;;;;;;;13.02;100.00;96465.66;5057291;28;20045;-79
2022/10/22 09:41:17;;;;;;;3.72;1.00;;;;;;;13.00;100.00;96468.72;5059029;28;20040;-79
2022/10/22 09:43:47;;;;;;;2.33;0.80;;;;;;;12.90;100.00;96466.38;5044286;28;20045;-79
2022/10/22 09:46:17;;;;;;;1.90;1.10;;;;;;;13.04;100.00;96472.38;5061818;28;20045;-78
2022/10/22 09:48:50;;;;;;;2.53;1.00;;;;;;;13.12;100.00;96476.19;5062574;28;20051;-77
2022/10/22 09:51:20;;;;;;;3.22;1.05;;;;;;;13.16;100.00;96471.69;5063391;28;20049;-78
2022/10/22 09:53:55;;;;;;;1.40;0.90;;;;;;;13.09;99.77;96473.31;5063683;28;20045;-76
2022/10/22 09:56:26;;;;;;;3.35;1.10;;;;;;;13.08;98.84;96478.00;5060811;28;20056;-78
2022/10/22 09:58:55;;;;;;;4.57;1.10;;;;;;;13.11;100.00;96473.81;5061823;28;20051;-78
2022/10/22 10:01:28;;;;;;;1.80;1.20;;;;;;;13.29;100.00;96476.13;5061496;28;20049;-79
2022/10/22 10:04:03;;;;;;;2.58;1.20;;;;;;;13.30;99.40;96476.91;5060650;28;20131;-78
2022/10/22 10:06:33;;;;;;;1.55;0.93;;;;;;;13.31;99.00;96462.94;5061202;28;20452;-80
2022/10/22 10:09:01;;;;;;;2.47;1.23;;;;;;;13.29;99.01;96469.84;5061697;28;20045;-79
2022/10/22 10:11:32;;;;;;;1.77;1.00;;;;;;;13.35;97.91;96473.97;5060453;28;20048;-79
2022/10/22 10:14:08;;;;;;;2.15;0.75;;;;;;;13.54;96.49;96479.00;5058233;28;20052;-79
2022/10/22 10:16:45;;;;;;;1.70;0.98;;;;;;;13.62;97.12;96475.38;5056248;28;20638;-78
2022/10/22 10:19:32;;;;;;;1.92;0.80;;;;;;;13.59;96.35;96467.84;5058562;28;20063;-78
2022/10/22 10:22:10;;;;;;;3.20;0.80;;;;;;;13.55;96.07;96464.19;5059976;28;20047;-79
2022/10/22 10:24:51;;;;;;;1.60;0.90;;;;;;;13.51;95.87;96468.72;5059071;28;20472;-79
2022/10/22 10:27:28;;;;;;;6.72;1.00;;;;;;;13.64;96.62;96459.44;5040791;28;20068;-79
2022/10/22 10:30:01;;;;;;;1.95;0.85;;;;;;;13.80;96.11;96463.16;5059503;28;20057;-79
2022/10/22 10:32:43;;;;;;;1.92;0.80;;;;;;;14.06;95.98;96465.66;5058553;28;20041;-77
2022/10/22 10:35:20;;;;;;;4.13;1.00;;;;;;;14.12;95.40;96466.25;5057972;28;20041;-78
2022/10/22 10:38:01;;;;;;;2.00;0.90;;;;;;;14.12;93.36;96462.72;5058351;28;20656;-78
2022/10/22 10:40:33;;;;;;;1.70;0.90;;;;;;;14.25;94.11;96451.44;5024127;28;20091;-78
2022/10/22 10:43:07;;;;;;;2.47;0.90;;;;;;;14.32;93.88;96457.16;5058762;28;20052;-78
2022/10/22 10:45:39;;;;;;;2.40;0.95;;;;;;;14.45;93.53;96446.22;5039435;28;20053;-78
2022/10/22 10:48:28;;;;;;;1.75;0.95;;;;;;;14.66;94.13;96455.16;5055111;28;20049;-80
2022/10/22 10:51:07;;;;;;;1.20;0.70;;;;;;;14.76;92.78;96454.72;5055123;28;20056;-79
2022/10/22 10:53:47;;;;;;;4.95;0.88;;;;;;;14.73;90.73;96449.94;5055846;28;20104;-80
2022/10/22 10:56:30;;;;;;;2.65;0.55;;;;;;;14.70;92.14;96456.09;5055503;28;20048;-80
2022/10/22 10:59:07;;;;;;;2.45;0.77;;;;;;;14.76;91.59;96451.97;5037508;28;20057;-80
2022/10/22 11:01:40;;;;;;;3.38;0.80;;;;;;;14.96;91.56;96453.00;5055431;28;20047;-78
2022/10/22 11:04:55;;;;;;;0.90;0.80;;;;;;;14.72;88.94;96456.56;5056053;28;20053;-79
2022/10/22 11:07:31;;;;;;;2.50;0.80;;;;;;;14.95;90.07;96450.63;4975921;28;20058;-79
2022/10/22 11:10:02;;;;;;;1.65;0.80;;;;;;;14.85;87.49;96455.41;4977016;28;20453;-79
2022/10/22 11:12:34;;;;;;;1.55;0.73;;;;;;;14.81;87.55;96448.22;5028075;28;20056;-78
2022/10/22 11:15:07;;;;;;;1.20;0.77;;;;;;;14.96;87.48;96441.25;5058823;28;20512;-78
2022/10/22 11:17:40;;;;;;;1.95;0.85;;;;;;;15.09;87.77;96456.56;5059128;28;20047;-78
2022/10/22 11:20:16;;;;;;;1.70;0.88;;;;;;;15.18;88.02;96448.97;5057245;28;20048;-78
2022/10/22 11:22:50;;;;;;;3.45;0.98;;;;;;;15.25;87.46;96453.91;5058076;28;20051;-79
2022/10/22 11:25:21;;;;;;;2.15;1.20;;;;;;;15.26;86.99;96444.53;5058292;28;20045;-79
2022/10/22 11:27:53;;;;;;;2.40;0.90;;;;;;;15.42;87.51;96441.88;5058319;28;20044;-77
2022/10/22 11:30:22;;;;;;;1.88;0.88;;;;;;;15.36;86.30;96444.84;5057620;28;20400;-79
2022/10/22 11:32:53;;;;;;;1.42;0.98;;;;;;;15.39;85.68;96443.34;5057895;28;20049;-79
2022/10/22 11:35:23;;;;;;;0.93;0.73;;;;;;;15.49;85.31;96444.81;5057235;28;20051;-80
2022/10/22 11:37:52;;;;;;;1.88;0.90;;;;;;;15.69;85.93;96441.13;5058117;28;20049;-80
2022/10/22 11:40:21;;;;;;;3.08;1.00;;;;;;;15.73;84.49;96442.03;5057997;28;20041;-78